createdAt,value
2023-01-09T00:02:14.265Z,99454.21
2023-01-09T00:04:42.287Z,99451.64
2023-01-09T00:07:10.357Z,99446.88
2023-01-09T00:09:38.365Z,99431.66
2023-01-09T00:12:06.400Z,99429.91
2023-01-09T00:14:34.364Z,99433.86
2023-01-09T00:17:02.382Z,99433.36
2023-01-09T00:19:30.500Z,99429.44
2023-01-09T00:21:58.505Z,99429.26
2023-01-09T00:24:26.451Z,99423.98
2023-01-09T00:26:54.415Z,99423.48
2023-01-09T00:29:22.502Z,99435.41
2023-01-09T00:31:50.665Z,99442.90
2023-01-09T00:34:18.975Z,99444.65
2023-01-09T00:36:47.104Z,99439.34
2023-01-09T00:39:15.180Z,99430.80
2023-01-09T00:41:50.232Z,99423.95
2023-01-09T00:44:24.243Z,99424.79
2023-01-09T00:46:58.752Z,99416.23
2023-01-09T00:49:31.206Z,99414.42
2023-01-09T00:51:59.696Z,99423.05
2023-01-09T00:54:29.211Z,99425.58
2023-01-09T00:56:58.854Z,99424.09
2023-01-09T00:59:28.342Z,99420.61
2023-01-09T01:01:56.668Z,99415.27
2023-01-09T01:04:43.727Z,99415.91
2023-01-09T01:07:30.559Z,99413.17
2023-01-09T01:09:58.802Z,99406.79
2023-01-09T01:12:27.170Z,99410.34
2023-01-09T01:14:55.171Z,99408.09
2023-01-09T01:17:23.218Z,99399.68
2023-01-09T01:19:51.178Z,99388.61
2023-01-09T01:22:19.353Z,99382.14
2023-01-09T01:24:47.315Z,99385.69
2023-01-09T01:27:15.391Z,99384.30
2023-01-09T01:29:43.391Z,99375.27
2023-01-09T01:32:12.048Z,99375.63
2023-01-09T01:34:40.063Z,99369.52
2023-01-09T01:37:08.084Z,99366.30
2023-01-09T01:39:36.128Z,99367.43
2023-01-09T01:42:05.906Z,99366.89
2023-01-09T01:45:05.269Z,99359.73
2023-01-09T01:47:33.245Z,99357.88
2023-01-09T01:50:08.703Z,99354.66
2023-01-09T01:52:37.995Z,99362.14
2023-01-09T01:55:08.614Z,99367.04
2023-01-09T01:57:40.063Z,99373.66
2023-01-09T02:00:08.893Z,99378.28
2023-01-09T02:02:37.068Z,99379.13
2023-01-09T02:05:06.237Z,99376.68
2023-01-09T02:07:35.217Z,99369.38
2023-01-09T02:10:03.701Z,99369.85
2023-01-09T02:12:31.699Z,99364.42
2023-01-09T02:15:14.820Z,99359.52
2023-01-09T02:18:07.948Z,99358.70
2023-01-09T02:20:57.621Z,99354.09
2023-01-09T02:23:44.639Z,99349.80
2023-01-09T02:26:40.562Z,99344.73
2023-01-09T02:29:30.240Z,99342.31
2023-01-09T02:32:10.496Z,99346.13
2023-01-09T02:34:47.886Z,99349.42
2023-01-09T02:37:35.521Z,99345.30
2023-01-09T02:40:17.944Z,99334.58
2023-01-09T02:42:47.734Z,99328.14
2023-01-09T02:45:16.319Z,99328.98
2023-01-09T02:47:46.886Z,99336.67
2023-01-09T02:50:20.454Z,99339.92
2023-01-09T02:53:35.830Z,99336.45
2023-01-09T02:56:31.856Z,99330.66
2023-01-09T02:59:12.831Z,99332.69
2023-01-09T03:01:52.566Z,99328.20
2023-01-09T03:04:32.476Z,99335.36
2023-01-09T03:07:11.733Z,99330.60
2023-01-09T03:09:42.798Z,99319.14
2023-01-09T03:12:19.795Z,99319.46
2023-01-09T03:14:51.082Z,99315.87
2023-01-09T03:17:32.220Z,99312.83
2023-01-09T03:20:03.077Z,99315.34
2023-01-09T03:22:31.124Z,99307.29
2023-01-09T03:24:59.993Z,99299.69
2023-01-09T03:27:28.727Z,99293.58
2023-01-09T03:29:56.753Z,99297.81
2023-01-09T03:32:24.833Z,99293.88
2023-01-09T03:34:52.927Z,99288.92
2023-01-09T03:37:21.086Z,99279.52
2023-01-09T03:39:49.045Z,99276.48
2023-01-09T03:42:17.012Z,99271.54
2023-01-09T03:44:45.079Z,99264.84
2023-01-09T03:47:13.000Z,99267.39
2023-01-09T03:49:41.016Z,99262.27
2023-01-09T03:52:09.086Z,99266.40
2023-01-09T03:54:37.175Z,99269.09
2023-01-09T03:57:05.227Z,99262.50
2023-01-09T03:59:33.234Z,99259.79
2023-01-09T04:02:03.730Z,99262.02
2023-01-09T04:04:32.411Z,99264.04
2023-01-09T04:07:00.412Z,99261.30
2023-01-09T04:09:28.351Z,99259.76
2023-01-09T04:11:56.317Z,99258.20
2023-01-09T04:14:24.506Z,99261.04
2023-01-09T04:16:52.665Z,99260.52
2023-01-09T04:19:20.880Z,99265.17
2023-01-09T04:21:48.813Z,99263.92
2023-01-09T04:24:16.773Z,99263.05
2023-01-09T04:26:44.847Z,99263.19
2023-01-09T04:29:12.815Z,99274.05
2023-01-09T04:31:40.887Z,99269.59
2023-01-09T04:34:08.813Z,99260.01
2023-01-09T04:36:36.928Z,99257.93
2023-01-09T04:39:04.892Z,99255.33
2023-01-09T04:41:51.399Z,99252.06
2023-01-09T04:44:21.109Z,99249.27
2023-01-09T04:46:49.688Z,99251.80
2023-01-09T04:49:17.863Z,99246.98
2023-01-09T04:51:46.040Z,99248.32
2023-01-09T04:54:14.426Z,99242.67
2023-01-09T04:56:42.796Z,99240.40
2023-01-09T04:59:10.878Z,99242.91
2023-01-09T05:01:39.604Z,99237.95
2023-01-09T05:04:08.291Z,99237.09
2023-01-09T05:06:36.510Z,99229.55
2023-01-09T05:09:04.596Z,99223.60
2023-01-09T05:11:32.757Z,99225.48
2023-01-09T05:14:00.833Z,99219.14
2023-01-09T05:16:29.346Z,99217.04
2023-01-09T05:19:00.674Z,99216.48
2023-01-09T05:21:28.991Z,99214.71
2023-01-09T05:23:56.889Z,99211.61
2023-01-09T05:26:25.001Z,99206.96
2023-01-09T05:28:56.796Z,99204.67
2023-01-09T05:31:27.012Z,99206.73
2023-01-09T05:33:56.158Z,99199.04
2023-01-09T05:36:24.115Z,99200.59
2023-01-09T05:38:52.012Z,99196.55
2023-01-09T05:41:19.920Z,99192.55
2023-01-09T05:43:47.808Z,99201.52
2023-01-09T05:46:15.837Z,99203.88
2023-01-09T05:48:44.914Z,99198.99
2023-01-09T05:51:12.883Z,99201.80
2023-01-09T05:53:40.808Z,99200.81
2023-01-09T05:56:10.172Z,99191.98
2023-01-09T05:58:39.453Z,99196.70
2023-01-09T06:01:08.056Z,99199.99
2023-01-09T06:03:35.971Z,99194.65
2023-01-09T06:06:03.999Z,99191.18
2023-01-09T06:08:31.869Z,99185.48
2023-01-09T06:10:59.787Z,99180.91
2023-01-09T06:13:27.730Z,99181.98
2023-01-09T06:15:55.748Z,99187.30
2023-01-09T06:18:23.709Z,99186.82
2023-01-09T06:20:51.723Z,99196.50
2023-01-09T06:23:19.729Z,99195.37
2023-01-09T06:25:47.849Z,99191.73
2023-01-09T06:28:15.845Z,99193.85
2023-01-09T06:30:43.864Z,99194.48
2023-01-09T06:33:11.921Z,99201.10
2023-01-09T06:35:39.824Z,99206.12
2023-01-09T06:38:07.716Z,99196.58
2023-01-09T06:40:35.803Z,99199.59
2023-01-09T06:43:04.567Z,99197.33
2023-01-09T06:45:32.550Z,99191.48
2023-01-09T06:48:00.468Z,99185.63
2023-01-09T06:50:28.423Z,99173.90
2023-01-09T06:52:56.439Z,99164.25
2023-01-09T06:55:26.416Z,99166.37
2023-01-09T06:57:54.491Z,99180.43
2023-01-09T07:00:22.456Z,99182.98
2023-01-09T07:02:50.374Z,99182.61
2023-01-09T07:05:18.555Z,99182.77
2023-01-09T07:07:46.418Z,99177.45
2023-01-09T07:10:15.233Z,99175.58
2023-01-09T07:12:43.152Z,99171.65
2023-01-09T07:15:11.593Z,99167.45
2023-01-09T07:17:39.528Z,99163.80
2023-01-09T07:20:08.239Z,99162.78
2023-01-09T07:22:36.182Z,99172.17
2023-01-09T07:25:04.690Z,99175.05
2023-01-09T07:27:32.602Z,99174.68
2023-01-09T07:30:00.429Z,99166.77
2023-01-09T07:32:28.309Z,99155.09
2023-01-09T07:34:56.253Z,99154.51
2023-01-09T07:37:24.387Z,99149.49
2023-01-09T07:39:53.450Z,99153.73
2023-01-09T07:42:21.445Z,99153.16
2023-01-09T07:44:49.420Z,99155.84
2023-01-09T07:47:17.315Z,99153.50
2023-01-09T07:49:45.357Z,99154.36
2023-01-09T07:52:13.405Z,99153.17
2023-01-09T07:54:41.232Z,99153.63
2023-01-09T07:57:09.162Z,99147.12
2023-01-09T07:59:37.025Z,99140.95
2023-01-09T08:02:05.780Z,99136.65
2023-01-09T08:04:33.736Z,99137.94
2023-01-09T08:07:03.360Z,99130.00
2023-01-09T08:09:31.266Z,99136.20
2023-01-09T08:11:59.374Z,99131.54
2023-01-09T08:14:27.316Z,99128.14
2023-01-09T08:16:55.174Z,99128.61
2023-01-09T08:19:24.066Z,99126.00
2023-01-09T08:21:51.946Z,99123.71
2023-01-09T08:24:19.799Z,99125.17
2023-01-09T08:26:47.735Z,99122.73
2023-01-09T08:29:15.667Z,99119.90
2023-01-09T08:31:43.667Z,99117.33
2023-01-09T08:34:11.519Z,99116.17
2023-01-09T08:36:39.353Z,99115.66
2023-01-09T08:39:07.329Z,99116.40
2023-01-09T08:41:53.966Z,99117.85
2023-01-09T08:44:40.370Z,99129.27
2023-01-09T08:47:08.816Z,99129.69
2023-01-09T08:49:38.944Z,99123.24
2023-01-09T08:52:07.720Z,99120.10
2023-01-09T08:54:39.975Z,99123.66
2023-01-09T08:57:08.134Z,99122.30
2023-01-09T08:59:36.953Z,99124.81
2023-01-09T09:02:04.844Z,99115.92
2023-01-09T09:04:32.886Z,99107.92
2023-01-09T09:07:00.892Z,99102.16
2023-01-09T09:09:28.872Z,99093.89
2023-01-09T09:11:56.881Z,99107.31
2023-01-09T09:14:43.385Z,99125.63
2023-01-09T09:17:11.349Z,99114.85
2023-01-09T09:19:39.742Z,99118.58
2023-01-09T09:22:07.617Z,99113.44
2023-01-09T09:24:35.487Z,99112.15
2023-01-09T09:27:04.784Z,99103.92
2023-01-09T09:29:32.745Z,99104.32
2023-01-09T09:32:01.037Z,99095.54
2023-01-09T09:34:29.517Z,99093.59
2023-01-09T09:36:57.589Z,99090.21
2023-01-09T09:39:25.648Z,99087.02
2023-01-09T09:42:30.493Z,99084.99
2023-01-09T09:45:16.757Z,99082.83
2023-01-09T09:48:06.489Z,99083.92
2023-01-09T09:50:53.745Z,99080.88
2023-01-09T09:53:37.282Z,99081.98
2023-01-09T09:56:06.040Z,99080.80
2023-01-09T09:58:42.523Z,99084.88
2023-01-09T10:01:17.499Z,99083.38
2023-01-09T10:03:59.328Z,99073.10
2023-01-09T10:06:42.374Z,99079.77
2023-01-09T10:09:19.301Z,99071.96
2023-01-09T10:11:51.354Z,99067.05
2023-01-09T10:14:24.400Z,99067.01
2023-01-09T10:17:07.924Z,99066.56
2023-01-09T10:19:41.658Z,99060.60
2023-01-09T10:22:17.879Z,99054.19
2023-01-09T10:24:56.137Z,99053.39
2023-01-09T10:27:58.314Z,99051.21
2023-01-09T10:30:37.610Z,99053.14
2023-01-09T10:33:11.673Z,99054.55
2023-01-09T10:35:48.102Z,99052.83
2023-01-09T10:38:23.001Z,99055.33
2023-01-09T10:41:16.806Z,99052.20
2023-01-09T10:43:49.277Z,99046.07
2023-01-09T10:46:38.051Z,99041.29
2023-01-09T10:49:12.817Z,99032.43
2023-01-09T10:51:49.306Z,99027.48
2023-01-09T10:54:21.654Z,99017.13
2023-01-09T10:57:13.029Z,99013.70
2023-01-09T10:59:42.034Z,99010.70
2023-01-09T11:02:30.275Z,99011.17
2023-01-09T11:04:59.090Z,99009.30
2023-01-09T11:07:37.257Z,99004.47
2023-01-09T11:10:09.729Z,98998.52
2023-01-09T11:12:39.349Z,98994.34
2023-01-09T11:15:20.155Z,98993.31
2023-01-09T11:17:50.665Z,98993.52
2023-01-09T11:20:26.162Z,98996.70
2023-01-09T11:22:56.906Z,98994.65
2023-01-09T11:25:28.326Z,98988.14
2023-01-09T11:28:06.406Z,98985.59
2023-01-09T11:30:51.156Z,98980.16
2023-01-09T11:33:43.845Z,98982.65
2023-01-09T11:36:15.794Z,98976.81
2023-01-09T11:38:56.145Z,98969.11
2023-01-09T11:41:38.182Z,98961.88
2023-01-09T11:44:06.672Z,98955.69
2023-01-09T11:46:40.204Z,98953.52
2023-01-09T11:49:32.127Z,98948.54
2023-01-09T11:52:33.150Z,98948.89
2023-01-09T11:55:13.178Z,98946.59
2023-01-09T11:57:44.118Z,98949.10
2023-01-09T12:00:56.220Z,98948.71
2023-01-09T12:04:25.217Z,98940.46
2023-01-09T12:07:31.205Z,98931.17
2023-01-09T12:10:37.190Z,98931.26
2023-01-09T12:13:50.208Z,98932.97
2023-01-09T12:16:41.363Z,98933.45
2023-01-09T12:20:10.233Z,98929.66
2023-01-09T12:23:15.213Z,98928.92
2023-01-09T12:26:12.190Z,98927.65
2023-01-09T12:29:19.290Z,98937.33
2023-01-09T12:32:19.237Z,98943.02
2023-01-09T12:35:22.504Z,98941.90
2023-01-09T12:38:23.188Z,98935.12
2023-01-09T12:41:33.242Z,98931.58
2023-01-09T12:44:37.262Z,98924.20
2023-01-09T12:54:51.611Z,98918.64
2023-01-09T12:57:19.569Z,98915.52
2023-01-09T12:59:54.260Z,98917.48
2023-01-09T13:02:44.488Z,98913.84
2023-01-09T13:05:27.615Z,98913.22
2023-01-09T13:08:24.602Z,98912.84
2023-01-09T13:10:56.464Z,98912.36
2023-01-09T13:13:42.398Z,98908.96
2023-01-09T13:16:23.572Z,98908.64
2023-01-09T13:19:03.041Z,98912.91
2023-01-09T13:21:31.781Z,98909.84
2023-01-09T13:24:12.183Z,98902.59
2023-01-09T13:26:52.531Z,98899.04
2023-01-09T13:29:26.957Z,98897.13
2023-01-09T13:32:10.400Z,98890.88
2023-01-09T13:34:39.083Z,98892.55
2023-01-09T13:37:22.787Z,98891.73
2023-01-09T13:40:30.730Z,98889.48
2023-01-09T13:43:04.578Z,98884.48
2023-01-09T13:45:35.027Z,98883.64
2023-01-09T13:48:09.961Z,98880.36
2023-01-09T13:50:39.499Z,98882.45
2023-01-09T13:53:19.762Z,98885.48
2023-01-09T13:56:03.269Z,98873.95
2023-01-09T13:59:02.169Z,98879.98
2023-01-09T14:01:35.933Z,98875.44
2023-01-09T14:04:14.918Z,98887.05
2023-01-09T14:07:03.239Z,98874.41
2023-01-09T14:09:37.799Z,98872.01
2023-01-09T14:12:07.101Z,98877.61
2023-01-09T14:14:35.670Z,98874.50
2023-01-09T14:17:17.175Z,98875.51
2023-01-09T14:19:45.559Z,98868.05
2023-01-09T14:22:29.872Z,98874.77
2023-01-09T14:25:06.272Z,98873.31
2023-01-09T14:27:59.901Z,98875.64
2023-01-09T14:30:28.070Z,98875.08
2023-01-09T14:33:18.795Z,98879.19
2023-01-09T14:36:00.702Z,98881.34
2023-01-09T14:38:29.049Z,98893.24
2023-01-09T14:41:54.061Z,98888.17
2023-01-09T14:44:53.383Z,98889.02
2023-01-09T14:47:24.606Z,98886.84
2023-01-09T14:50:04.468Z,98892.55
2023-01-09T14:52:39.976Z,98895.88
2023-01-09T14:55:21.180Z,98894.15
2023-01-09T14:57:52.424Z,98887.62
2023-01-09T15:00:22.592Z,98903.29
2023-01-09T15:02:52.969Z,98903.14
2023-01-09T15:05:25.334Z,98900.27
2023-01-09T15:08:01.398Z,98904.08
2023-01-09T15:10:32.244Z,98903.30
2023-01-09T15:13:03.231Z,98899.73
2023-01-09T15:15:31.169Z,98900.09
2023-01-09T15:18:02.492Z,98896.27
2023-01-09T15:20:33.480Z,98906.29
2023-01-09T15:23:01.697Z,98910.08
2023-01-09T15:25:38.889Z,98910.33
2023-01-09T15:28:32.803Z,98913.02
2023-01-09T15:31:23.179Z,98916.73
2023-01-09T15:33:53.941Z,98920.91
2023-01-09T15:36:26.235Z,98923.20
2023-01-09T15:38:55.371Z,98921.69
2023-01-09T15:41:47.925Z,98924.88
2023-01-09T15:44:26.050Z,98924.75
2023-01-09T15:46:59.908Z,98927.22
2023-01-09T15:49:28.581Z,98929.38
2023-01-09T15:51:57.082Z,98924.17
2023-01-09T15:54:31.515Z,98919.67
2023-01-09T15:57:24.907Z,98925.17
2023-01-09T15:59:54.586Z,98922.50
2023-01-09T16:02:43.334Z,98926.70
2023-01-09T16:05:17.041Z,98926.48
2023-01-09T16:07:51.095Z,98920.67
2023-01-09T16:10:36.172Z,98922.77
2023-01-09T16:13:04.205Z,98927.19
2023-01-09T16:15:34.963Z,98926.80
2023-01-09T16:18:18.561Z,98927.83
2023-01-09T16:20:49.599Z,98918.34
2023-01-09T16:23:31.531Z,98919.52
2023-01-09T16:26:19.938Z,98924.50
2023-01-09T16:28:47.895Z,98931.98
2023-01-09T16:31:20.817Z,98935.94
2023-01-09T16:33:54.396Z,98939.70
2023-01-09T16:36:22.562Z,98946.90
2023-01-09T16:38:50.538Z,98950.39
2023-01-09T16:41:40.426Z,98950.81
2023-01-09T16:44:10.946Z,98955.13
2023-01-09T16:46:43.707Z,98960.39
2023-01-09T16:49:19.108Z,98956.86
2023-01-09T16:51:48.210Z,98961.15
2023-01-09T16:54:16.746Z,98959.21
2023-01-09T16:56:49.454Z,98965.30
2023-01-09T16:59:26.457Z,98962.27
2023-01-09T17:01:55.477Z,98964.64
2023-01-09T17:04:26.641Z,98965.30
2023-01-09T17:06:55.326Z,98966.49
2023-01-09T17:09:27.348Z,98966.88
2023-01-09T17:11:55.884Z,98970.71
2023-01-09T17:14:24.772Z,98969.51
2023-01-09T17:16:52.903Z,98969.64
2023-01-09T17:19:21.624Z,98974.20
2023-01-09T17:21:49.714Z,98975.38
2023-01-09T17:24:36.511Z,98975.93
2023-01-09T17:27:23.416Z,98973.66
2023-01-09T17:29:51.537Z,98970.52
2023-01-09T17:32:19.876Z,98978.50
2023-01-09T17:34:47.938Z,98985.84
2023-01-09T17:37:19.666Z,98983.60
2023-01-09T17:39:47.684Z,98992.59
2023-01-09T17:42:15.635Z,98997.63
2023-01-09T17:44:43.699Z,98996.54
2023-01-09T17:47:15.719Z,98998.58
2023-01-09T17:49:44.044Z,99001.27
2023-01-09T17:52:12.221Z,99008.45
2023-01-09T17:54:40.833Z,99015.14
2023-01-09T17:57:16.456Z,99021.31
2023-01-09T17:59:45.194Z,99022.66
2023-01-09T18:02:19.976Z,99023.52
2023-01-09T18:04:48.183Z,99024.14
2023-01-09T18:07:18.067Z,99019.95
2023-01-09T18:09:46.133Z,99016.33
2023-01-09T18:12:14.294Z,99015.80
2023-01-09T18:14:42.884Z,99007.62
2023-01-09T18:17:13.525Z,99002.75
2023-01-09T18:19:41.587Z,99000.84
2023-01-09T18:22:09.867Z,99007.59
2023-01-09T18:24:38.129Z,99011.59
2023-01-09T18:27:06.099Z,99012.52
2023-01-09T18:29:34.279Z,99015.16
2023-01-09T18:32:02.424Z,99020.30
2023-01-09T18:34:30.515Z,99020.98
2023-01-09T18:36:58.643Z,99021.84
2023-01-09T18:39:26.759Z,99028.15
2023-01-09T18:41:54.957Z,99027.25
2023-01-09T18:44:23.008Z,99026.27
2023-01-09T18:46:51.298Z,99028.15
2023-01-09T18:49:19.455Z,99026.89
2023-01-09T18:51:47.468Z,99025.94
2023-01-09T18:54:15.514Z,99031.86
2023-01-09T18:56:43.666Z,99036.12
2023-01-09T18:59:12.678Z,99040.09
2023-01-09T19:01:40.757Z,99046.95
2023-01-09T19:04:08.988Z,99045.17
2023-01-09T19:06:37.696Z,99052.88
2023-01-09T19:09:06.867Z,99055.05
2023-01-09T19:11:34.868Z,99054.76
2023-01-09T19:14:03.040Z,99061.14
2023-01-09T19:16:31.371Z,99065.59
2023-01-09T19:19:01.162Z,99064.85
2023-01-09T19:21:30.060Z,99064.55
2023-01-09T19:23:59.004Z,99067.39
2023-01-09T19:26:28.623Z,99067.04
2023-01-09T19:29:00.819Z,99061.23
2023-01-09T19:31:29.205Z,99064.27
2023-01-09T19:33:58.897Z,99077.71
2023-01-09T19:36:28.167Z,99089.08
2023-01-09T19:38:58.291Z,99087.87
2023-01-09T19:41:26.766Z,99086.17
2023-01-09T19:43:55.019Z,99082.73
2023-01-09T19:46:24.884Z,99088.04
2023-01-09T19:48:53.646Z,99091.22
2023-01-09T19:51:22.327Z,99094.98
2023-01-09T19:53:53.632Z,99095.33
2023-01-09T19:56:23.598Z,99100.61
2023-01-09T19:59:09.790Z,99103.78
2023-01-09T20:01:39.824Z,99109.16
2023-01-09T20:04:13.631Z,99106.96
2023-01-09T20:06:44.083Z,99109.59
2023-01-09T20:09:14.126Z,99107.84
2023-01-09T20:11:44.893Z,99113.98
2023-01-09T20:14:15.372Z,99116.52
2023-01-09T20:16:43.979Z,99119.17
2023-01-09T20:19:13.452Z,99117.92
2023-01-09T20:21:42.787Z,99120.71
2023-01-09T20:24:16.788Z,99126.34
2023-01-09T20:26:46.510Z,99132.17
2023-01-09T20:29:14.899Z,99131.63
2023-01-09T20:31:42.990Z,99139.35
2023-01-09T20:34:14.883Z,99144.17
2023-01-09T20:36:43.488Z,99145.56
2023-01-09T20:39:12.560Z,99142.63
2023-01-09T20:41:40.887Z,99139.14
2023-01-09T20:44:13.217Z,99141.69
2023-01-09T20:46:43.572Z,99147.80
2023-01-09T20:49:13.661Z,99149.00
2023-01-09T20:51:58.564Z,99151.81
2023-01-09T20:54:26.515Z,99157.19
2023-01-09T20:56:54.716Z,99161.35
2023-01-09T20:59:23.322Z,99161.98
2023-01-09T21:01:51.674Z,99161.58
2023-01-09T21:04:20.111Z,99165.86
2023-01-09T21:06:50.249Z,99163.21
2023-01-09T21:09:19.211Z,99174.20
2023-01-09T21:11:47.449Z,99181.03
2023-01-09T21:14:15.405Z,99187.58
2023-01-09T21:16:53.327Z,99190.05
2023-01-09T21:19:23.063Z,99197.77
2023-01-09T21:21:53.203Z,99202.30
2023-01-09T21:24:21.436Z,99205.56
2023-01-09T21:26:49.487Z,99209.35
2023-01-09T21:29:17.766Z,99209.02
2023-01-09T21:31:46.041Z,99208.52
2023-01-09T21:34:15.841Z,99215.77
2023-01-09T21:36:45.224Z,99216.44
2023-01-09T21:39:13.522Z,99226.20
2023-01-09T21:42:00.338Z,99230.89
2023-01-09T21:44:47.183Z,99234.60
2023-01-09T21:47:15.344Z,99232.75
2023-01-09T21:49:44.956Z,99235.02
2023-01-09T21:52:14.542Z,99241.24
2023-01-09T21:54:42.719Z,99246.60
2023-01-09T21:57:11.289Z,99249.82
2023-01-09T21:59:39.368Z,99258.92
2023-01-09T22:02:11.466Z,99259.81
2023-01-09T22:04:40.307Z,99270.11
2023-01-09T22:07:10.245Z,99273.70
2023-01-09T22:09:39.144Z,99275.98
2023-01-09T22:12:07.498Z,99287.21
2023-01-09T22:14:35.672Z,99290.50
2023-01-09T22:17:03.749Z,99289.35
2023-01-09T22:19:32.772Z,99284.11
2023-01-09T22:22:02.746Z,99280.79
2023-01-09T22:24:30.819Z,99275.73
2023-01-09T22:26:58.992Z,99280.67
2023-01-09T22:29:26.993Z,99282.17
2023-01-09T22:31:54.965Z,99279.66
2023-01-09T22:34:23.626Z,99276.27
2023-01-09T22:36:51.717Z,99279.16
2023-01-09T22:39:20.096Z,99275.68
2023-01-09T22:41:52.797Z,99277.41
2023-01-09T22:44:21.430Z,99276.54
2023-01-09T22:46:49.397Z,99277.77
2023-01-09T22:49:17.377Z,99274.86
2023-01-09T22:51:45.463Z,99276.17
2023-01-09T22:54:13.733Z,99278.58
2023-01-09T22:56:41.731Z,99285.94
2023-01-09T22:59:09.758Z,99287.14
2023-01-09T23:01:37.887Z,99295.21
2023-01-09T23:04:06.149Z,99296.79
2023-01-09T23:06:34.378Z,99294.91
2023-01-09T23:09:02.481Z,99296.21
2023-01-09T23:11:50.215Z,99295.85
2023-01-09T23:14:18.351Z,99295.44
2023-01-09T23:16:46.642Z,99299.89
2023-01-09T23:19:16.035Z,99303.26
2023-01-09T23:21:45.365Z,99306.17
2023-01-09T23:24:16.301Z,99306.30
2023-01-09T23:26:44.850Z,99306.27
2023-01-09T23:29:16.012Z,99307.12
2023-01-09T23:31:44.639Z,99312.56
2023-01-09T23:34:18.080Z,99310.76
2023-01-09T23:36:49.655Z,99313.42
2023-01-09T23:39:18.146Z,99313.78
2023-01-09T23:42:05.021Z,99320.02
2023-01-09T23:44:33.306Z,99328.98
2023-01-09T23:47:01.445Z,99337.00
2023-01-09T23:49:29.586Z,99338.75
2023-01-09T23:51:58.232Z,99348.66
2023-01-09T23:54:26.308Z,99351.67
2023-01-09T23:56:56.643Z,99358.59
2023-01-09T23:59:24.814Z,99363.90
